createdAt,value
2023-02-24T00:01:59.867Z,97.07
2023-02-24T00:04:28.613Z,93.85
2023-02-24T00:06:55.839Z,98.53
2023-02-24T00:09:26.356Z,93.50
2023-02-24T00:12:02.997Z,99.03
2023-02-24T00:14:33.171Z,92.35
2023-02-24T00:17:00.765Z,92.22
2023-02-24T00:19:32.830Z,111.60
2023-02-24T00:22:04.289Z,97.28
2023-02-24T00:24:31.555Z,94.88
2023-02-24T00:27:01.008Z,90.50
2023-02-24T00:29:29.315Z,96.15
2023-02-24T00:32:03.778Z,96.45
2023-02-24T00:34:34.084Z,106.05
2023-02-24T00:37:01.936Z,101.05
2023-02-24T00:39:30.526Z,95.47
2023-02-24T00:42:05.022Z,87.43
2023-02-24T00:44:33.931Z,81.18
2023-02-24T00:47:02.689Z,95.68
2023-02-24T00:49:30.961Z,97.85
2023-02-24T00:51:58.503Z,72.05
2023-02-24T00:54:28.496Z,60.85
2023-02-24T00:56:57.057Z,61.95
2023-02-24T00:59:24.713Z,49.60
2023-02-24T01:01:54.999Z,44.03
2023-02-24T01:04:22.669Z,47.75
2023-02-24T01:06:52.304Z,67.13
2023-02-24T01:09:20.859Z,42.03
2023-02-24T01:12:18.137Z,38.17
2023-02-24T01:14:49.675Z,45.80
2023-02-24T01:17:19.381Z,42.72
2023-02-24T01:19:49.409Z,40.15
2023-02-24T01:22:18.518Z,36.60
2023-02-24T01:24:45.979Z,48.63
2023-02-24T01:27:17.623Z,34.10
2023-02-24T01:29:46.082Z,35.00
2023-02-24T01:32:21.300Z,38.25
2023-02-24T01:34:51.581Z,30.52
2023-02-24T01:37:19.716Z,38.13
2023-02-24T01:39:47.841Z,39.42
2023-02-24T01:42:19.477Z,36.85
2023-02-24T01:44:46.941Z,38.05
2023-02-24T01:47:16.347Z,32.15
2023-02-24T01:49:46.009Z,27.50
2023-02-24T01:52:30.630Z,30.45
2023-02-24T01:55:20.225Z,23.10
2023-02-24T01:57:47.984Z,33.63
2023-02-24T02:00:32.481Z,29.77
2023-02-24T02:03:02.841Z,23.63
2023-02-24T02:05:30.356Z,31.58
2023-02-24T02:07:57.768Z,26.45
2023-02-24T02:10:26.362Z,22.15
2023-02-24T02:12:53.641Z,33.53
2023-02-24T02:15:21.215Z,23.90
2023-02-24T02:18:12.639Z,18.27
2023-02-24T02:21:33.477Z,27.23
2023-02-24T02:24:18.855Z,25.88
2023-02-24T02:27:11.765Z,37.10
2023-02-24T02:29:51.418Z,25.23
2023-02-24T02:32:31.441Z,34.72
2023-02-24T02:35:12.970Z,22.67
2023-02-24T02:38:15.081Z,22.40
2023-02-24T02:41:28.993Z,22.48
2023-02-24T02:44:07.937Z,22.98
2023-02-24T02:46:44.115Z,33.75
2023-02-24T02:49:32.328Z,26.50
2023-02-24T02:52:05.678Z,31.25
2023-02-24T02:54:49.565Z,30.17
2023-02-24T02:57:29.564Z,31.88
2023-02-24T03:00:15.369Z,23.13
2023-02-24T03:02:45.447Z,20.60
2023-02-24T03:05:17.483Z,20.40
2023-02-24T03:07:51.759Z,13.07
2023-02-24T03:10:27.563Z,17.08
2023-02-24T03:12:57.740Z,13.43
2023-02-24T03:15:27.060Z,18.73
2023-02-24T03:20:44.101Z,19.95
2023-02-24T03:23:26.101Z,27.50
2023-02-24T03:26:23.310Z,21.45
2023-02-24T03:28:59.523Z,23.33
2023-02-24T03:31:31.446Z,17.50
2023-02-24T03:34:20.372Z,23.33
2023-02-24T03:36:48.300Z,27.35
2023-02-24T03:39:15.855Z,25.42
2023-02-24T03:42:17.988Z,16.88
2023-02-24T03:44:45.597Z,21.80
2023-02-24T03:47:15.892Z,17.85
2023-02-24T03:49:43.840Z,23.05
2023-02-24T03:52:40.343Z,12.13
2023-02-24T03:55:45.801Z,19.02
2023-02-24T03:58:43.873Z,35.30
2023-02-24T04:01:28.750Z,13.75
2023-02-24T04:04:33.130Z,23.90
2023-02-24T04:07:13.632Z,16.30
2023-02-24T04:09:50.680Z,19.58
2023-02-24T04:12:28.246Z,18.55
2023-02-24T04:15:04.809Z,15.65
2023-02-24T04:17:52.303Z,13.60
2023-02-24T04:20:21.700Z,14.10
2023-02-24T04:25:19.735Z,24.47
2023-02-24T04:27:47.622Z,16.35
2023-02-24T04:30:15.046Z,22.63
2023-02-24T04:32:45.216Z,20.48
2023-02-24T04:35:19.245Z,15.38
2023-02-24T04:37:46.684Z,21.15
2023-02-24T04:40:18.781Z,23.35
2023-02-24T04:42:46.567Z,21.52
2023-02-24T04:45:16.826Z,23.38
2023-02-24T04:47:51.556Z,13.25
2023-02-24T04:50:23.267Z,13.70
2023-02-24T04:53:00.903Z,12.68
2023-02-24T04:55:33.048Z,14.00
2023-02-24T04:58:01.211Z,16.02
2023-02-24T05:00:35.380Z,17.95
2023-02-24T05:03:04.506Z,15.68
2023-02-24T05:05:35.564Z,22.40
2023-02-24T05:08:08.996Z,19.35
2023-02-24T05:10:46.807Z,12.75
2023-02-24T05:13:17.192Z,18.55
2023-02-24T05:15:45.822Z,15.10
2023-02-24T05:18:17.066Z,13.70
2023-02-24T05:21:06.860Z,10.70
2023-02-24T05:23:40.021Z,12.82
2023-02-24T05:26:09.276Z,10.45
2023-02-24T05:28:41.142Z,19.45
2023-02-24T05:31:15.283Z,18.88
2023-02-24T05:33:44.189Z,17.63
2023-02-24T05:36:17.153Z,9.43
2023-02-24T05:38:45.610Z,16.70
2023-02-24T05:41:18.401Z,14.47
2023-02-24T05:43:54.905Z,13.43
2023-02-24T05:46:28.348Z,9.38
2023-02-24T05:49:09.040Z,9.45
2023-02-24T05:51:39.126Z,13.32
2023-02-24T05:54:08.526Z,10.57
2023-02-24T05:59:07.635Z,8.25
2023-02-24T06:01:37.241Z,19.15
2023-02-24T06:04:06.245Z,19.15
2023-02-24T06:06:39.459Z,17.33
2023-02-24T06:09:11.057Z,10.55
2023-02-24T06:11:40.961Z,17.45
2023-02-24T06:14:09.561Z,17.17
2023-02-24T06:16:40.023Z,15.90
2023-02-24T06:19:08.650Z,17.23
2023-02-24T06:21:42.279Z,15.98
2023-02-24T06:24:14.581Z,24.00
2023-02-24T06:26:45.530Z,8.50
2023-02-24T06:29:20.714Z,9.98
2023-02-24T06:31:48.688Z,11.25
2023-02-24T06:34:18.434Z,11.23
2023-02-24T06:36:47.299Z,12.98
2023-02-24T06:39:14.848Z,15.02
2023-02-24T06:41:42.645Z,12.25
2023-02-24T06:44:10.007Z,20.08
2023-02-24T06:46:37.830Z,9.07
2023-02-24T06:49:05.066Z,11.35
2023-02-24T06:51:32.534Z,10.85
2023-02-24T06:54:00.163Z,9.30
2023-02-24T06:56:28.782Z,12.63
2023-02-24T06:58:56.956Z,8.30
2023-02-24T07:01:26.613Z,14.98
2023-02-24T07:04:07.776Z,14.10
2023-02-24T07:06:38.161Z,12.88
2023-02-24T07:09:08.702Z,10.30
2023-02-24T07:11:37.032Z,19.13
2023-02-24T07:14:05.872Z,12.77
2023-02-24T07:16:34.726Z,13.18
2023-02-24T07:19:04.898Z,16.15
2023-02-24T07:21:39.650Z,12.90
2023-02-24T07:24:08.429Z,10.68
2023-02-24T07:26:35.858Z,13.25
2023-02-24T07:29:06.664Z,9.88
2023-02-24T07:31:34.612Z,12.65
2023-02-24T07:34:02.154Z,12.70
2023-02-24T07:36:30.566Z,12.88
2023-02-24T07:38:59.042Z,12.70
2023-02-24T07:41:28.732Z,11.15
2023-02-24T07:43:59.048Z,10.73
2023-02-24T07:46:28.044Z,19.48
2023-02-24T07:48:56.164Z,17.58
2023-02-24T07:51:25.491Z,8.32
2023-02-24T07:56:27.118Z,12.48
2023-02-24T07:58:59.231Z,12.63
2023-02-24T08:01:28.664Z,12.63
2023-02-24T08:06:46.149Z,7.10
2023-02-24T08:09:18.273Z,7.28
2023-02-24T08:11:52.261Z,5.13
2023-02-24T08:14:34.809Z,11.88
2023-02-24T08:17:05.684Z,14.98
2023-02-24T08:19:39.540Z,10.48
2023-02-24T08:22:20.345Z,21.13
2023-02-24T08:25:00.022Z,6.47
2023-02-24T08:27:30.437Z,12.88
2023-02-24T08:29:58.689Z,12.80
2023-02-24T08:32:26.909Z,9.32
2023-02-24T08:34:56.744Z,9.25
2023-02-24T08:37:26.071Z,18.05
2023-02-24T08:42:31.117Z,12.80
2023-02-24T08:44:58.506Z,10.30
2023-02-24T08:47:31.252Z,18.55
2023-02-24T08:50:00.247Z,20.00
2023-02-24T08:52:29.167Z,15.25
2023-02-24T08:55:01.698Z,12.82
2023-02-24T08:57:28.911Z,11.80
2023-02-24T08:59:59.896Z,13.60
2023-02-24T09:02:29.254Z,13.18
2023-02-24T09:07:37.364Z,12.65
2023-02-24T09:10:11.523Z,14.77
2023-02-24T09:12:41.966Z,7.65
2023-02-24T09:15:15.682Z,11.38
2023-02-24T09:17:45.672Z,10.23
2023-02-24T09:20:39.249Z,20.10
2023-02-24T09:23:09.703Z,11.35
2023-02-24T09:25:43.648Z,6.47
2023-02-24T09:28:25.939Z,14.60
2023-02-24T09:30:59.054Z,15.15
2023-02-24T09:33:26.349Z,16.50
2023-02-24T09:36:03.402Z,7.97
2023-02-24T09:38:57.721Z,12.77
2023-02-24T09:41:33.329Z,11.48
2023-02-24T09:44:18.350Z,15.68
2023-02-24T09:47:10.574Z,14.10
2023-02-24T09:49:56.389Z,10.32
2023-02-24T09:52:39.788Z,6.95
2023-02-24T09:55:35.967Z,8.50
2023-02-24T09:58:47.639Z,11.85
2023-02-24T10:01:33.483Z,9.88
2023-02-24T10:04:21.412Z,17.20
2023-02-24T10:06:51.193Z,11.45
2023-02-24T10:09:39.599Z,5.45
2023-02-24T10:12:18.137Z,6.80
2023-02-24T10:15:18.860Z,9.40
2023-02-24T10:17:55.476Z,6.00
2023-02-24T10:20:31.169Z,8.15
2023-02-24T10:23:11.702Z,8.23
2023-02-24T10:25:53.697Z,14.18
2023-02-24T10:28:37.970Z,11.93
2023-02-24T10:31:46.345Z,4.68
2023-02-24T10:34:20.812Z,10.00
2023-02-24T10:36:50.436Z,5.88
2023-02-24T10:39:26.206Z,9.65
2023-02-24T10:42:17.577Z,9.80
2023-02-24T10:45:01.477Z,10.90
2023-02-24T10:47:31.185Z,5.47
2023-02-24T10:50:01.118Z,9.43
2023-02-24T10:52:51.247Z,4.30
2023-02-24T10:55:43.086Z,11.32
2023-02-24T10:58:56.318Z,5.88
2023-02-24T11:01:40.946Z,8.13
2023-02-24T11:04:43.636Z,17.15
2023-02-24T11:07:25.245Z,8.35
2023-02-24T11:10:13.947Z,6.38
2023-02-24T11:13:10.274Z,13.82
2023-02-24T11:16:05.485Z,10.43
2023-02-24T11:18:33.605Z,10.02
2023-02-24T11:21:04.123Z,12.77
2023-02-24T11:23:45.877Z,9.35
2023-02-24T11:26:22.616Z,17.90
2023-02-24T11:29:13.196Z,12.13
2023-02-24T11:32:02.368Z,12.15
2023-02-24T11:37:41.861Z,11.70
2023-02-24T11:40:23.303Z,6.45
2023-02-24T11:43:21.034Z,7.22
2023-02-24T11:46:34.405Z,5.40
2023-02-24T11:49:04.150Z,9.55
2023-02-24T11:51:34.471Z,7.25
2023-02-24T11:54:11.383Z,10.27
2023-02-24T11:56:53.433Z,8.45
2023-02-24T11:59:23.292Z,9.55
2023-02-24T12:02:10.390Z,11.10
2023-02-24T12:04:53.810Z,11.23
2023-02-24T12:07:48.636Z,6.80
2023-02-24T12:10:24.242Z,10.02
2023-02-24T12:13:18.385Z,4.10
2023-02-24T12:16:03.246Z,6.10
2023-02-24T12:18:34.174Z,7.30
2023-02-24T12:21:10.332Z,10.32
2023-02-24T12:23:45.540Z,10.38
2023-02-24T12:26:42.750Z,12.77
2023-02-24T12:29:48.610Z,8.93
2023-02-24T12:32:36.259Z,8.13
2023-02-24T12:35:25.859Z,7.68
2023-02-24T12:38:19.117Z,13.63
2023-02-24T12:41:18.610Z,5.97
2023-02-24T12:43:53.997Z,12.60
2023-02-24T12:46:29.420Z,10.70
2023-02-24T12:49:10.414Z,11.77
2023-02-24T12:51:56.957Z,12.65
2023-02-24T12:54:38.749Z,11.95
2023-02-24T12:57:32.225Z,7.55
2023-02-24T13:00:05.730Z,5.43
2023-02-24T13:02:50.103Z,14.52
2023-02-24T13:05:23.534Z,9.02
2023-02-24T13:08:16.723Z,11.18
2023-02-24T13:10:45.754Z,6.00
2023-02-24T13:13:33.740Z,6.75
2023-02-24T13:16:01.411Z,9.95
2023-02-24T13:18:34.149Z,6.68
2023-02-24T13:21:08.182Z,9.30
2023-02-24T13:23:36.778Z,5.88
2023-02-24T13:26:04.046Z,14.45
2023-02-24T13:28:35.918Z,7.85
2023-02-24T13:31:06.476Z,8.88
2023-02-24T13:33:41.905Z,4.38
2023-02-24T13:36:22.091Z,6.45
2023-02-24T13:39:07.035Z,11.10
2023-02-24T13:41:38.634Z,10.02
2023-02-24T13:44:27.032Z,9.73
2023-02-24T13:47:34.271Z,7.10
2023-02-24T13:50:26.027Z,6.53
2023-02-24T13:53:23.616Z,7.15
2023-02-24T13:56:49.499Z,9.98
2023-02-24T13:59:33.601Z,9.52
2023-02-24T14:02:03.430Z,12.23
2023-02-24T14:04:33.191Z,6.00
2023-02-24T14:07:03.837Z,10.60
2023-02-24T14:09:38.060Z,5.28
2023-02-24T14:12:25.936Z,6.68
2023-02-24T14:14:53.579Z,5.32
2023-02-24T14:17:42.020Z,5.72
2023-02-24T14:20:13.127Z,7.43
2023-02-24T14:22:45.566Z,7.50
2023-02-24T14:25:13.420Z,3.38
2023-02-24T14:27:42.410Z,7.65
2023-02-24T14:30:30.780Z,6.00
2023-02-24T14:32:58.544Z,5.13
2023-02-24T14:35:39.432Z,4.30
2023-02-24T14:38:07.199Z,8.48
2023-02-24T14:40:34.432Z,6.13
2023-02-24T14:43:03.662Z,6.80
2023-02-24T14:45:30.973Z,7.90
2023-02-24T14:47:58.214Z,5.78
2023-02-24T14:50:30.653Z,7.03
2023-02-24T14:53:07.423Z,5.00
2023-02-24T14:55:41.171Z,6.68
2023-02-24T14:58:25.505Z,6.07
2023-02-24T15:01:30.578Z,2.72
2023-02-24T15:04:00.298Z,5.78
2023-02-24T15:06:30.461Z,2.40
2023-02-24T15:09:06.097Z,6.20
2023-02-24T15:11:33.751Z,2.67
2023-02-24T15:14:04.920Z,4.32
2023-02-24T15:16:42.199Z,2.70
2023-02-24T15:19:32.998Z,7.45
2023-02-24T15:22:00.639Z,4.25
2023-02-24T15:24:33.669Z,4.65
2023-02-24T15:27:21.915Z,3.78
2023-02-24T15:30:07.963Z,3.13
2023-02-24T15:32:39.422Z,5.15
2023-02-24T15:35:07.956Z,2.95
2023-02-24T15:37:42.728Z,3.17
2023-02-24T15:40:28.919Z,4.47
2023-02-24T15:42:57.664Z,4.70
2023-02-24T15:45:36.362Z,6.47
2023-02-24T15:48:17.756Z,4.55
2023-02-24T15:50:45.224Z,7.88
2023-02-24T15:53:13.033Z,5.60
2023-02-24T15:55:43.786Z,4.85
2023-02-24T15:58:18.544Z,5.18
2023-02-24T16:00:46.222Z,6.07
2023-02-24T16:03:13.614Z,6.40
2023-02-24T16:05:46.205Z,6.38
2023-02-24T16:08:18.812Z,8.27
2023-02-24T16:10:46.348Z,9.20
2023-02-24T16:13:20.800Z,5.75
2023-02-24T16:15:48.358Z,9.32
2023-02-24T16:18:22.179Z,7.25
2023-02-24T16:20:54.769Z,6.07
2023-02-24T16:23:23.627Z,6.63
2023-02-24T16:26:00.808Z,8.60
2023-02-24T16:28:28.181Z,7.65
2023-02-24T16:30:55.832Z,7.55
2023-02-24T16:33:23.789Z,9.43
2023-02-24T16:35:54.927Z,6.93
2023-02-24T16:38:26.542Z,8.15
2023-02-24T16:40:54.752Z,9.00
2023-02-24T16:43:21.986Z,9.55
2023-02-24T16:46:02.349Z,11.18
2023-02-24T16:48:34.721Z,10.60
2023-02-24T16:51:03.767Z,9.95
2023-02-24T16:53:31.183Z,10.60
2023-02-24T16:55:58.461Z,10.75
2023-02-24T16:58:26.116Z,15.18
2023-02-24T17:00:57.280Z,17.20
2023-02-24T17:03:27.018Z,12.27
2023-02-24T17:05:54.599Z,11.65
2023-02-24T17:08:22.158Z,13.07
2023-02-24T17:10:49.785Z,14.00
2023-02-24T17:13:19.113Z,15.70
2023-02-24T17:18:13.894Z,14.23
2023-02-24T17:20:42.457Z,16.17
2023-02-24T17:23:11.538Z,16.35
2023-02-24T17:25:38.985Z,14.35
2023-02-24T17:28:06.556Z,14.75
2023-02-24T17:30:39.438Z,19.30
2023-02-24T17:33:06.783Z,17.55
2023-02-24T17:35:34.180Z,18.00
2023-02-24T17:38:01.743Z,22.60
2023-02-24T17:40:29.254Z,22.95
2023-02-24T17:42:56.531Z,22.98
2023-02-24T17:45:23.786Z,22.50
2023-02-24T17:47:52.678Z,24.67
2023-02-24T17:50:19.997Z,24.55
2023-02-24T17:52:47.675Z,22.55
2023-02-24T17:55:14.903Z,24.02
2023-02-24T17:57:42.223Z,27.23
2023-02-24T18:00:10.788Z,23.52
2023-02-24T18:02:38.608Z,20.33
2023-02-24T18:05:06.192Z,20.77
2023-02-24T18:07:33.384Z,21.33
2023-02-24T18:10:00.655Z,22.48
2023-02-24T18:12:28.183Z,34.92
2023-02-24T18:15:07.428Z,25.90
2023-02-24T18:17:36.594Z,36.33
2023-02-24T18:20:05.360Z,29.58
2023-02-24T18:22:32.625Z,22.23
2023-02-24T18:25:01.214Z,26.88
2023-02-24T18:27:28.544Z,23.75
2023-02-24T18:29:56.014Z,28.58
2023-02-24T18:32:23.535Z,24.10
2023-02-24T18:34:50.970Z,25.83
2023-02-24T18:37:18.293Z,26.90
2023-02-24T18:39:45.542Z,25.05
2023-02-24T18:42:13.058Z,30.02
2023-02-24T18:44:40.388Z,25.42
2023-02-24T18:47:09.825Z,21.15
2023-02-24T18:49:37.707Z,25.25
2023-02-24T18:52:07.290Z,27.08
2023-02-24T18:54:35.123Z,25.45
2023-02-24T18:57:02.609Z,31.83
2023-02-24T18:59:29.947Z,26.45
2023-02-24T19:01:57.298Z,29.23
2023-02-24T19:04:25.437Z,25.83
2023-02-24T19:06:52.705Z,32.22
2023-02-24T19:09:24.091Z,26.38
2023-02-24T19:11:52.483Z,27.58
2023-02-24T19:14:19.836Z,30.77
2023-02-24T19:16:47.198Z,26.95
2023-02-24T19:19:16.105Z,29.15
2023-02-24T19:21:45.851Z,28.85
2023-02-24T19:24:14.058Z,30.98
2023-02-24T19:26:43.755Z,27.00
2023-02-24T19:29:11.910Z,28.45
2023-02-24T19:31:41.023Z,22.67
2023-02-24T19:34:11.391Z,25.55
2023-02-24T19:36:39.025Z,28.95
2023-02-24T19:39:09.280Z,28.77
2023-02-24T19:41:36.911Z,29.08
2023-02-24T19:44:04.231Z,27.50
2023-02-24T19:46:34.305Z,33.25
2023-02-24T19:49:02.418Z,31.52
2023-02-24T19:51:30.122Z,32.45
2023-02-24T19:53:59.286Z,31.15
2023-02-24T19:56:33.325Z,36.75
2023-02-24T19:59:02.075Z,32.58
2023-02-24T20:01:30.198Z,37.65
2023-02-24T20:04:00.505Z,40.65
2023-02-24T20:06:37.078Z,33.05
2023-02-24T20:09:15.363Z,34.33
2023-02-24T20:11:43.873Z,29.95
2023-02-24T20:14:12.905Z,33.30
2023-02-24T20:16:42.497Z,34.03
2023-02-24T20:19:11.551Z,31.77
2023-02-24T20:21:39.479Z,34.53
2023-02-24T20:24:11.503Z,33.55
2023-02-24T20:26:41.966Z,35.60
2023-02-24T20:31:38.704Z,35.88
2023-02-24T20:34:08.521Z,38.00
2023-02-24T20:36:36.304Z,39.95
2023-02-24T20:39:06.630Z,42.50
2023-02-24T20:41:34.642Z,36.25
2023-02-24T20:44:01.897Z,36.63
2023-02-24T20:46:31.743Z,37.60
2023-02-24T20:49:02.126Z,39.58
2023-02-24T20:51:30.242Z,35.88
2023-02-24T20:53:58.644Z,42.92
2023-02-24T20:56:33.103Z,40.60
2023-02-24T20:59:06.044Z,38.17
2023-02-24T21:01:34.083Z,33.22
2023-02-24T21:04:01.666Z,38.53
2023-02-24T21:06:29.788Z,36.03
2023-02-24T21:08:57.893Z,37.40
2023-02-24T21:11:25.660Z,37.28
2023-02-24T21:13:53.201Z,34.88
2023-02-24T21:16:21.681Z,37.05
2023-02-24T21:18:50.608Z,35.83
2023-02-24T21:21:19.759Z,36.40
2023-02-24T21:23:47.846Z,41.38
2023-02-24T21:26:15.506Z,38.83
2023-02-24T21:28:42.840Z,42.60
2023-02-24T21:31:12.226Z,38.53
2023-02-24T21:33:39.773Z,40.15
2023-02-24T21:36:09.861Z,35.33
2023-02-24T21:38:37.821Z,35.58
2023-02-24T21:41:07.510Z,41.38
2023-02-24T21:43:35.384Z,34.10
2023-02-24T21:46:05.521Z,35.17
2023-02-24T21:48:33.760Z,33.78
2023-02-24T21:51:06.433Z,32.75
2023-02-24T21:53:35.578Z,37.00
2023-02-24T21:58:32.551Z,30.20
2023-02-24T22:00:59.792Z,30.98
2023-02-24T22:03:28.072Z,31.73
2023-02-24T22:05:55.484Z,32.15
2023-02-24T22:08:22.702Z,27.27
2023-02-24T22:11:00.522Z,26.92
2023-02-24T22:13:28.300Z,31.10
2023-02-24T22:15:58.216Z,28.10
2023-02-24T22:18:25.481Z,27.10
2023-02-24T22:20:52.771Z,35.65
2023-02-24T22:23:20.172Z,30.40
2023-02-24T22:25:47.550Z,26.77
2023-02-24T22:28:14.800Z,26.10
2023-02-24T22:30:42.051Z,30.25
2023-02-24T22:33:09.333Z,27.88
2023-02-24T22:35:36.651Z,24.40
2023-02-24T22:38:04.216Z,23.17
2023-02-24T22:40:31.457Z,22.63
2023-02-24T22:42:58.660Z,26.88
2023-02-24T22:45:25.910Z,18.88
2023-02-24T22:47:53.147Z,23.27
2023-02-24T22:50:20.486Z,16.08
2023-02-24T22:52:49.006Z,21.60
2023-02-24T22:55:18.173Z,20.40
2023-02-24T22:57:45.529Z,24.10
2023-02-24T23:00:20.185Z,24.70
2023-02-24T23:02:47.929Z,19.73
2023-02-24T23:05:15.254Z,20.90
2023-02-24T23:07:42.519Z,13.10
2023-02-24T23:10:10.676Z,16.27
2023-02-24T23:12:37.927Z,14.35
2023-02-24T23:15:05.940Z,15.82
2023-02-24T23:17:33.139Z,14.95
2023-02-24T23:20:00.676Z,11.40
2023-02-24T23:22:27.917Z,14.30
2023-02-24T23:24:55.187Z,12.10
2023-02-24T23:27:23.674Z,22.02
2023-02-24T23:29:50.935Z,14.53
2023-02-24T23:32:18.254Z,13.43
2023-02-24T23:34:45.871Z,21.25
2023-02-24T23:37:23.343Z,17.55
2023-02-24T23:39:50.585Z,21.92
2023-02-24T23:42:19.589Z,12.85
2023-02-24T23:44:49.397Z,18.05
2023-02-24T23:47:16.840Z,18.13
2023-02-24T23:49:48.395Z,19.15
2023-02-24T23:52:15.986Z,21.45
2023-02-24T23:54:43.770Z,23.58
2023-02-24T23:57:11.415Z,27.10
2023-02-24T23:59:39.307Z,22.13
